createdAt,value
2019-01-06T00:00:32.361Z,82.16
2019-01-06T00:03:04.377Z,82.34
2019-01-06T00:05:35.361Z,82.47
2019-01-06T00:08:04.407Z,82.10
2019-01-06T00:10:34.371Z,81.96
2019-01-06T00:13:03.536Z,81.74
2019-01-06T00:15:37.546Z,81.57
2019-01-06T00:18:08.626Z,81.49
2019-01-06T00:20:43.287Z,80.63
2019-01-06T00:23:12.431Z,80.84
2019-01-06T00:25:46.923Z,80.03
2019-01-06T00:28:16.023Z,79.40
2019-01-06T00:30:46.871Z,78.72
2019-01-06T00:33:17.817Z,78.06
2019-01-06T00:35:52.554Z,77.89
2019-01-06T00:38:27.280Z,77.54
2019-01-06T00:41:01.198Z,77.02
2019-01-06T00:43:30.289Z,77.06
2019-01-06T00:46:00.130Z,76.85
2019-01-06T00:48:32.923Z,76.34
2019-01-06T00:51:04.774Z,75.90
2019-01-06T00:56:22.962Z,73.87
2019-01-06T00:58:52.854Z,74.42
2019-01-06T01:01:24.736Z,74.63
2019-01-06T01:03:55.735Z,74.41
2019-01-06T01:06:30.307Z,74.10
2019-01-06T01:08:59.547Z,73.45
2019-01-06T01:11:31.397Z,73.34
2019-01-06T01:14:00.481Z,73.43
2019-01-06T01:16:29.565Z,73.40
2019-01-06T01:19:01.547Z,73.20
2019-01-06T01:21:30.625Z,72.82
2019-01-06T01:24:00.487Z,72.69
2019-01-06T01:32:30.736Z,72.28
2019-01-06T01:35:05.259Z,72.19
2019-01-06T01:37:34.330Z,72.07
2019-01-06T01:40:03.375Z,72.26
2019-01-06T01:42:33.234Z,73.19
2019-01-06T01:45:02.298Z,72.81
2019-01-06T01:47:35.348Z,72.01
2019-01-06T01:50:08.266Z,72.19
2019-01-06T01:52:42.285Z,72.09
2019-01-06T01:55:14.275Z,72.26
2019-01-06T01:57:45.234Z,72.58
2019-01-06T02:00:14.278Z,72.61
2019-01-06T02:02:48.957Z,72.58
2019-01-06T02:05:19.936Z,72.10
2019-01-06T02:07:49.071Z,71.06
2019-01-06T02:10:23.631Z,70.59
2019-01-06T02:12:53.658Z,70.80
2019-01-06T02:15:23.599Z,70.39
2019-01-06T02:17:55.617Z,69.97
2019-01-06T02:20:25.691Z,68.34
2019-01-06T02:23:00.402Z,69.48
2019-01-06T02:25:29.475Z,69.81
2019-01-06T02:28:03.602Z,69.81
2019-01-06T02:30:38.508Z,69.22
2019-01-06T02:33:10.447Z,69.06
2019-01-06T02:35:39.477Z,69.09
2019-01-06T02:38:12.465Z,69.56
2019-01-06T02:40:47.399Z,69.02
2019-01-06T02:43:18.480Z,69.00
2019-01-06T02:45:50.494Z,68.81
2019-01-06T02:48:26.248Z,69.56
2019-01-06T02:50:56.113Z,69.37
2019-01-06T02:53:25.174Z,69.54
2019-01-06T02:56:00.200Z,70.08
2019-01-06T02:58:29.231Z,70.12
2019-01-06T03:01:04.032Z,70.24
2019-01-06T03:06:39.627Z,70.62
2019-01-06T03:09:10.615Z,70.30
2019-01-06T03:11:40.511Z,70.97
2019-01-06T03:14:09.545Z,71.34
2019-01-06T03:16:38.579Z,71.56
2019-01-06T03:19:07.725Z,70.70
2019-01-06T03:21:42.583Z,70.75
2019-01-06T03:24:12.566Z,71.36
2019-01-06T03:26:42.457Z,71.26
2019-01-06T03:29:11.550Z,71.11
2019-01-06T03:31:40.638Z,71.72
2019-01-06T03:34:10.541Z,71.63
2019-01-06T03:36:41.528Z,71.48
2019-01-06T03:39:16.174Z,71.39
2019-01-06T03:41:50.878Z,71.50
2019-01-06T03:44:22.084Z,71.39
2019-01-06T03:46:51.144Z,71.58
2019-01-06T03:52:05.262Z,71.47
2019-01-06T03:54:36.194Z,71.93
2019-01-06T03:57:10.913Z,71.73
2019-01-06T03:59:41.927Z,71.79
2019-01-06T04:02:16.564Z,72.28
2019-01-06T04:04:46.738Z,72.31
2019-01-06T04:07:16.615Z,72.85
2019-01-06T04:09:50.759Z,72.16
2019-01-06T04:12:23.558Z,71.73
2019-01-06T04:14:52.629Z,71.44
2019-01-06T04:17:21.676Z,71.54
2019-01-06T04:19:56.249Z,71.96
2019-01-06T04:22:28.246Z,72.06
2019-01-06T04:25:01.270Z,71.44
2019-01-06T04:27:31.241Z,71.93
2019-01-06T04:30:05.151Z,71.87
2019-01-06T04:32:40.202Z,71.76
2019-01-06T04:35:09.251Z,71.23
2019-01-06T04:37:44.166Z,71.27
2019-01-06T04:40:14.182Z,71.19
2019-01-06T04:42:44.184Z,71.51
2019-01-06T04:45:18.837Z,71.80
2019-01-06T04:47:53.489Z,72.19
2019-01-06T04:50:28.212Z,71.77
2019-01-06T04:53:02.130Z,72.05
2019-01-06T04:55:33.945Z,71.72
2019-01-06T04:58:08.644Z,71.43
2019-01-06T05:00:37.739Z,71.71
2019-01-06T05:05:50.717Z,71.86
2019-01-06T05:08:22.693Z,71.62
2019-01-06T05:10:51.955Z,71.11
2019-01-06T05:13:30.432Z,71.81
2019-01-06T05:15:59.529Z,71.24
2019-01-06T05:18:29.469Z,70.56
2019-01-06T05:20:59.456Z,71.02
2019-01-06T05:29:12.456Z,72.10
2019-01-06T05:31:44.318Z,69.63
2019-01-06T05:36:57.426Z,70.76
2019-01-06T05:39:28.748Z,71.00
2019-01-06T05:42:01.767Z,70.33
2019-01-06T05:44:30.980Z,70.68
2019-01-06T05:47:04.939Z,71.01
2019-01-06T05:49:38.846Z,70.25
2019-01-06T05:52:09.883Z,70.78
2019-01-06T05:54:42.737Z,71.03
2019-01-06T05:57:13.703Z,70.86
2019-01-06T05:59:48.461Z,70.97
2019-01-06T06:02:20.373Z,70.71
2019-01-06T06:04:51.358Z,70.12
2019-01-06T06:07:22.230Z,70.19
2019-01-06T06:09:51.272Z,70.28
2019-01-06T06:12:21.845Z,70.67
2019-01-06T06:14:50.941Z,70.40
2019-01-06T06:17:19.984Z,70.30
2019-01-06T06:19:49.919Z,69.28
2019-01-06T06:22:21.889Z,70.04
2019-01-06T06:24:56.772Z,70.38
2019-01-06T06:27:25.806Z,70.36
2019-01-06T06:30:00.479Z,70.53
2019-01-06T06:38:04.449Z,70.43
2019-01-06T06:40:34.426Z,70.36
2019-01-06T06:43:08.435Z,69.92
2019-01-06T06:48:22.442Z,70.17
2019-01-06T06:50:58.971Z,70.34
2019-01-06T06:53:34.050Z,70.65
2019-01-06T06:56:04.063Z,70.65
2019-01-06T06:58:36.955Z,70.59
2019-01-06T07:01:13.387Z,71.00
2019-01-06T07:03:50.268Z,70.24
2019-01-06T07:06:20.180Z,70.05
2019-01-06T07:08:53.066Z,70.28
2019-01-06T07:11:24.059Z,70.31
2019-01-06T07:13:53.109Z,70.64
2019-01-06T07:16:35.835Z,70.58
2019-01-06T07:19:05.705Z,70.63
2019-01-06T07:21:34.757Z,70.68
2019-01-06T07:24:05.788Z,70.61
2019-01-06T07:26:34.827Z,70.58
2019-01-06T07:29:04.688Z,70.52
2019-01-06T07:31:33.754Z,70.75
2019-01-06T07:34:06.762Z,70.15
2019-01-06T07:36:35.824Z,70.45
2019-01-06T07:39:05.668Z,70.03
2019-01-06T07:41:39.718Z,70.49
2019-01-06T07:44:08.753Z,70.21
2019-01-06T07:46:40.858Z,70.15
2019-01-06T07:49:09.897Z,70.12
2019-01-06T07:51:39.862Z,70.33
2019-01-06T07:54:09.748Z,70.28
2019-01-06T07:56:38.780Z,69.99
2019-01-06T07:59:13.461Z,69.76
2019-01-06T08:01:42.501Z,69.68
2019-01-06T08:04:11.585Z,69.36
2019-01-06T08:06:43.487Z,69.38
2019-01-06T08:09:15.317Z,69.54
2019-01-06T08:11:44.520Z,69.40
2019-01-06T08:14:13.517Z,69.46
2019-01-06T08:16:47.754Z,69.59
2019-01-06T08:19:16.791Z,69.52
2019-01-06T08:21:51.770Z,69.79
2019-01-06T08:24:21.760Z,69.94
2019-01-06T08:26:52.636Z,69.67
2019-01-06T08:29:21.678Z,69.73
2019-01-06T08:34:45.374Z,69.56
2019-01-06T08:37:15.395Z,69.63
2019-01-06T08:39:48.392Z,69.53
2019-01-06T08:42:20.442Z,69.74
2019-01-06T08:44:49.500Z,69.51
2019-01-06T08:47:22.872Z,69.50
2019-01-06T08:49:51.929Z,69.47
2019-01-06T08:52:26.979Z,69.31
2019-01-06T08:54:57.967Z,69.41
2019-01-06T08:57:29.020Z,69.49
2019-01-06T08:59:58.071Z,69.53
2019-01-06T09:02:27.113Z,69.62
2019-01-06T09:04:59.149Z,69.63
2019-01-06T09:07:33.752Z,69.49
2019-01-06T09:10:08.469Z,69.11
2019-01-06T09:15:23.345Z,69.40
2019-01-06T09:17:58.073Z,69.50
2019-01-06T09:20:32.780Z,69.65
2019-01-06T09:23:07.426Z,69.89
2019-01-06T09:25:40.938Z,69.68
2019-01-06T09:28:06.340Z,69.68
2019-01-06T09:30:38.376Z,69.67
2019-01-06T09:33:09.355Z,69.62
2019-01-06T09:35:38.403Z,69.49
2019-01-06T09:38:08.446Z,68.64
2019-01-06T09:40:43.037Z,68.84
2019-01-06T09:43:18.070Z,68.91
2019-01-06T09:45:47.109Z,68.82
2019-01-06T09:48:21.670Z,68.69
2019-01-06T09:50:51.518Z,68.88
2019-01-06T09:53:21.416Z,68.46
2019-01-06T09:55:51.576Z,68.05
2019-01-06T09:58:21.458Z,68.15
2019-01-06T10:00:52.443Z,68.14
2019-01-06T10:03:23.410Z,67.77
2019-01-06T10:05:53.407Z,68.05
2019-01-06T10:08:24.373Z,67.93
2019-01-06T10:10:58.309Z,68.28
2019-01-06T10:13:32.868Z,68.19
2019-01-06T10:16:02.737Z,68.06
2019-01-06T10:18:33.750Z,68.19
2019-01-06T10:21:08.748Z,68.21
2019-01-06T10:23:37.792Z,68.10
2019-01-06T10:26:08.640Z,68.09
2019-01-06T10:28:41.919Z,67.93
2019-01-06T10:31:16.493Z,68.16
2019-01-06T10:34:03.786Z,68.13
2019-01-06T10:36:32.835Z,68.46
2019-01-06T10:39:03.678Z,68.10
2019-01-06T10:41:38.637Z,68.20
2019-01-06T10:44:12.637Z,68.06
2019-01-06T10:46:42.541Z,68.03
2019-01-06T10:49:17.474Z,67.78
2019-01-06T10:51:46.554Z,67.69
2019-01-06T10:54:19.519Z,67.68
2019-01-06T10:56:55.409Z,67.78
2019-01-06T10:59:24.455Z,67.74
2019-01-06T11:01:58.729Z,67.96
2019-01-06T11:04:33.413Z,67.87
2019-01-06T11:07:03.426Z,67.97
2019-01-06T11:09:35.401Z,67.93
2019-01-06T11:12:10.141Z,67.59
2019-01-06T11:14:39.949Z,67.84
2019-01-06T11:17:08.997Z,67.79
2019-01-06T11:19:38.905Z,67.56
2019-01-06T11:22:10.959Z,67.94
2019-01-06T11:24:41.795Z,67.91
2019-01-06T11:27:11.777Z,68.20
2019-01-06T11:29:40.823Z,67.77
2019-01-06T11:32:09.916Z,67.67
2019-01-06T11:34:39.776Z,67.71
2019-01-06T11:37:08.826Z,67.92
2019-01-06T11:39:37.937Z,67.78
2019-01-06T11:42:10.779Z,68.08
2019-01-06T11:44:46.816Z,68.16
2019-01-06T11:52:44.836Z,68.77
2019-01-06T11:55:19.608Z,68.87
2019-01-06T11:57:48.656Z,68.96
2019-01-06T12:00:21.595Z,68.90
2019-01-06T12:02:50.647Z,69.06
2019-01-06T12:05:20.624Z,69.08
2019-01-06T12:07:50.500Z,68.90
2019-01-06T12:10:25.466Z,68.55
2019-01-06T12:12:56.597Z,68.62
2019-01-06T12:15:31.258Z,68.61
2019-01-06T12:18:02.127Z,68.56
2019-01-06T12:23:34.331Z,68.59
2019-01-06T12:26:08.871Z,68.50
2019-01-06T12:31:21.727Z,68.15
2019-01-06T12:33:51.609Z,68.49
2019-01-06T12:36:20.656Z,68.25
2019-01-06T12:38:52.663Z,68.42
2019-01-06T12:41:27.374Z,68.37
2019-01-06T12:44:02.106Z,68.26
2019-01-06T12:46:31.972Z,68.28
2019-01-06T12:49:05.987Z,68.18
2019-01-06T12:51:43.649Z,68.18
2019-01-06T12:54:12.625Z,68.39
2019-01-06T12:59:32.011Z,68.09
2019-01-06T13:02:02.105Z,68.31
2019-01-06T13:04:34.703Z,68.44
2019-01-06T13:07:09.389Z,68.37
2019-01-06T13:09:42.460Z,68.13
2019-01-06T13:12:16.379Z,67.69
2019-01-06T13:14:46.385Z,67.86
2019-01-06T13:17:21.099Z,67.98
2019-01-06T13:19:53.883Z,68.04
2019-01-06T13:22:23.726Z,68.10
2019-01-06T13:24:52.795Z,68.27
2019-01-06T13:27:23.696Z,68.37
2019-01-06T13:29:52.747Z,68.24
2019-01-06T13:32:22.609Z,67.90
2019-01-06T13:34:53.801Z,68.13
2019-01-06T13:37:22.862Z,68.15
2019-01-06T13:39:52.636Z,67.78
2019-01-06T13:42:22.523Z,68.25
2019-01-06T13:44:51.569Z,68.07
2019-01-06T13:47:23.523Z,68.14
2019-01-06T13:49:58.278Z,68.35
2019-01-06T13:52:33.405Z,68.36
2019-01-06T13:55:07.984Z,68.62
2019-01-06T14:00:23.846Z,68.18
2019-01-06T14:02:55.302Z,68.30
2019-01-06T14:05:30.209Z,68.47
2019-01-06T14:08:01.254Z,68.66
2019-01-06T14:10:35.413Z,68.90
2019-01-06T14:13:05.420Z,68.93
2019-01-06T14:15:40.176Z,68.61
2019-01-06T14:18:14.751Z,68.40
2019-01-06T14:20:43.818Z,68.45
2019-01-06T14:23:13.661Z,68.80
2019-01-06T14:25:42.927Z,68.91
2019-01-06T14:28:17.475Z,68.59
2019-01-06T14:30:49.329Z,68.36
2019-01-06T14:33:19.231Z,68.37
2019-01-06T14:35:50.243Z,68.81
2019-01-06T14:38:22.103Z,69.17
2019-01-06T14:40:52.271Z,69.40
2019-01-06T14:46:35.979Z,69.26
2019-01-06T14:49:06.944Z,69.51
2019-01-06T14:51:36.825Z,69.69
2019-01-06T14:54:08.685Z,69.13
2019-01-06T14:56:43.234Z,69.13
2019-01-06T14:59:12.283Z,69.25
2019-01-06T15:01:41.323Z,69.62
2019-01-06T15:04:13.356Z,69.76
2019-01-06T15:06:46.227Z,69.82
2019-01-06T15:09:20.910Z,69.99
2019-01-06T15:11:55.601Z,69.98
2019-01-06T15:14:24.708Z,69.73
2019-01-06T15:16:53.738Z,69.75
2019-01-06T15:19:23.783Z,70.22
2019-01-06T15:21:52.794Z,70.32
2019-01-06T15:24:21.846Z,70.50
2019-01-06T15:26:57.134Z,70.62
2019-01-06T15:29:31.840Z,70.67
2019-01-06T15:32:03.023Z,70.81
2019-01-06T15:34:37.928Z,70.94
2019-01-06T15:37:07.020Z,70.82
2019-01-06T15:42:22.878Z,70.99
2019-01-06T15:44:54.678Z,71.00
2019-01-06T15:47:26.635Z,70.94
2019-01-06T15:50:01.196Z,70.95
2019-01-06T15:52:31.039Z,71.05
2019-01-06T15:55:01.895Z,71.20
2019-01-06T15:57:30.939Z,71.27
2019-01-06T16:00:02.857Z,71.25
2019-01-06T16:02:37.832Z,71.25
2019-01-06T16:05:12.477Z,71.27
2019-01-06T16:07:42.479Z,71.50
2019-01-06T16:10:17.063Z,71.56
2019-01-06T16:12:48.035Z,71.66
2019-01-06T16:15:17.832Z,71.70
2019-01-06T16:17:51.695Z,71.82
2019-01-06T16:20:22.619Z,71.95
2019-01-06T16:22:57.304Z,72.01
2019-01-06T16:25:27.326Z,72.09
2019-01-06T16:27:56.389Z,72.05
2019-01-06T16:30:26.756Z,71.88
2019-01-06T16:33:01.379Z,72.04
2019-01-06T16:35:33.320Z,71.95
2019-01-06T16:38:02.431Z,72.05
2019-01-06T16:40:35.476Z,72.02
2019-01-06T16:43:07.550Z,71.99
2019-01-06T16:45:37.539Z,72.15
2019-01-06T16:48:10.154Z,72.25
2019-01-06T16:50:39.558Z,72.30
2019-01-06T16:53:12.464Z,72.36
2019-01-06T16:55:43.553Z,72.34
2019-01-06T16:58:12.625Z,72.39
2019-01-06T17:00:46.630Z,72.33
2019-01-06T17:03:35.179Z,72.28
2019-01-06T17:06:10.109Z,71.97
2019-01-06T17:08:39.154Z,71.92
2019-01-06T17:11:14.383Z,72.03
2019-01-06T17:13:45.265Z,71.89
2019-01-06T17:19:03.707Z,71.83
2019-01-06T17:21:36.714Z,71.82
2019-01-06T17:24:28.478Z,71.79
2019-01-06T17:27:00.422Z,71.91
2019-01-06T17:29:32.413Z,71.90
2019-01-06T17:32:06.449Z,71.75
2019-01-06T17:34:40.429Z,71.57
2019-01-06T17:37:13.537Z,71.85
2019-01-06T17:39:44.530Z,71.73
2019-01-06T17:42:15.712Z,71.77
2019-01-06T17:44:48.630Z,71.79
2019-01-06T17:47:17.717Z,71.66
2019-01-06T17:49:52.416Z,71.61
2019-01-06T17:52:23.421Z,71.73
2019-01-06T17:54:55.407Z,71.67
2019-01-06T17:57:30.082Z,71.64
2019-01-06T18:00:02.002Z,71.66
2019-01-06T18:02:36.618Z,71.57
2019-01-06T18:05:06.608Z,71.63
2019-01-06T18:07:35.655Z,71.51
2019-01-06T18:10:05.671Z,71.65
2019-01-06T18:12:36.567Z,71.79
2019-01-06T18:15:08.629Z,71.73
2019-01-06T18:17:38.642Z,71.51
2019-01-06T18:20:09.661Z,71.47
2019-01-06T18:22:40.514Z,71.24
2019-01-06T18:25:10.359Z,71.27
2019-01-06T18:27:42.287Z,71.11
2019-01-06T18:30:16.068Z,71.17
2019-01-06T18:32:46.066Z,70.87
2019-01-06T18:35:15.956Z,70.94
2019-01-06T18:37:45.828Z,71.04
2019-01-06T18:40:15.734Z,71.01
2019-01-06T18:42:49.754Z,71.22
2019-01-06T18:45:21.653Z,71.14
2019-01-06T18:47:50.705Z,71.31
2019-01-06T18:50:25.333Z,71.47
2019-01-06T18:52:57.223Z,71.50
2019-01-06T18:55:30.097Z,71.41
2019-01-06T18:57:59.164Z,71.50
2019-01-06T19:00:30.036Z,71.56
2019-01-06T19:02:59.330Z,71.56
2019-01-06T19:05:33.150Z,71.58
2019-01-06T19:08:05.270Z,71.56
2019-01-06T19:10:38.266Z,71.61
2019-01-06T19:13:13.208Z,71.66
2019-01-06T19:15:47.776Z,71.72
2019-01-06T19:18:20.817Z,71.69
2019-01-06T19:23:35.409Z,71.88
2019-01-06T19:26:04.595Z,71.84
2019-01-06T19:28:33.746Z,71.85
2019-01-06T19:31:03.806Z,72.10
2019-01-06T19:33:39.035Z,72.17
2019-01-06T19:36:28.546Z,72.33
2019-01-06T19:39:03.207Z,72.27
2019-01-06T19:41:38.788Z,72.35
2019-01-06T19:44:09.076Z,72.33
2019-01-06T19:46:41.064Z,72.36
2019-01-06T19:49:13.194Z,72.37
2019-01-06T19:51:42.376Z,72.34
2019-01-06T19:54:20.326Z,72.45
2019-01-06T19:56:49.465Z,72.49
2019-01-06T20:02:07.601Z,72.48
2019-01-06T20:04:37.790Z,72.36
2019-01-06T20:07:09.920Z,72.50
2019-01-06T20:09:41.078Z,72.57
2019-01-06T20:12:11.204Z,72.63
2019-01-06T20:17:25.580Z,72.81
2019-01-06T20:19:55.612Z,72.87
2019-01-06T20:25:10.818Z,72.98
2019-01-06T20:27:41.136Z,73.07
2019-01-06T20:30:12.915Z,73.09
2019-01-06T20:32:42.948Z,73.10
2019-01-06T20:35:12.935Z,73.15
2019-01-06T20:43:19.838Z,73.14
2019-01-06T20:45:53.414Z,73.16
2019-01-06T20:48:28.131Z,73.19
2019-01-06T20:50:57.189Z,73.11
2019-01-06T20:53:28.177Z,73.20
2019-01-06T20:55:58.189Z,73.30
2019-01-06T20:58:30.214Z,73.35
2019-01-06T21:01:04.837Z,73.27
2019-01-06T21:03:48.926Z,73.37
2019-01-06T21:06:21.806Z,73.27
2019-01-06T21:08:50.904Z,73.37
2019-01-06T21:11:19.945Z,73.17
2019-01-06T21:13:49.966Z,73.40
2019-01-06T21:16:21.866Z,73.39
2019-01-06T21:18:51.900Z,73.44
2019-01-06T21:21:27.396Z,73.55
2019-01-06T21:26:40.705Z,73.53
2019-01-06T21:29:10.597Z,73.62
2019-01-06T21:31:43.543Z,73.64
2019-01-06T21:34:12.635Z,73.58
2019-01-06T21:36:45.434Z,73.61
2019-01-06T21:39:16.490Z,73.56
2019-01-06T21:41:52.687Z,73.53
2019-01-06T21:44:23.068Z,73.42
2019-01-06T21:46:57.637Z,73.42
2019-01-06T21:49:32.300Z,73.34
2019-01-06T21:54:51.489Z,73.46
2019-01-06T21:57:22.342Z,73.39
2019-01-06T21:59:51.409Z,73.15
2019-01-06T22:02:21.318Z,73.20
2019-01-06T22:04:50.372Z,73.16
2019-01-06T22:07:20.428Z,73.18
2019-01-06T22:09:54.449Z,73.21
2019-01-06T22:15:08.604Z,72.98
2019-01-06T22:17:38.424Z,73.00
2019-01-06T22:20:07.498Z,73.06
2019-01-06T22:22:36.582Z,73.06
2019-01-06T22:25:09.479Z,72.96
2019-01-06T22:27:39.514Z,72.86
2019-01-06T22:30:12.527Z,72.97
2019-01-06T22:32:47.260Z,73.02
2019-01-06T22:35:21.973Z,73.02
2019-01-06T22:40:34.776Z,73.09
2019-01-06T22:43:06.702Z,73.09
2019-01-06T22:45:41.319Z,73.17
2019-01-06T22:48:10.418Z,73.15
2019-01-06T22:50:43.274Z,73.15
2019-01-06T22:53:14.165Z,73.35
2019-01-06T22:55:48.858Z,73.33
2019-01-06T22:58:19.816Z,73.36
2019-01-06T23:00:52.699Z,73.49
2019-01-06T23:03:31.408Z,73.44
2019-01-06T23:06:06.054Z,73.59
2019-01-06T23:08:36.069Z,73.63
2019-01-06T23:11:10.048Z,73.62
2019-01-06T23:16:21.949Z,73.74
2019-01-06T23:18:51.883Z,73.81
2019-01-06T23:21:20.970Z,73.80
2019-01-06T23:23:50.831Z,73.85
2019-01-06T23:26:20.935Z,73.91
2019-01-06T23:28:55.512Z,73.85
2019-01-06T23:31:24.618Z,73.92
2019-01-06T23:33:53.666Z,73.93
2019-01-06T23:36:24.513Z,74.03
2019-01-06T23:38:57.570Z,73.98
2019-01-06T23:41:30.483Z,74.13
2019-01-06T23:44:00.503Z,74.25
2019-01-06T23:49:13.649Z,74.42
2019-01-06T23:51:48.394Z,74.60
2019-01-06T23:54:18.432Z,74.74
2019-01-06T23:56:50.421Z,74.81
2019-01-06T23:59:23.504Z,74.86
